sensor_id;sensor_type;location;lat;lon;timestamp;P1;durP1;ratioP1;P2;durP2;ratioP2
14584;SDS011;7379;51.506;11.876;2022-12-18T00:02:05;41.93;;;25.50;;
14584;SDS011;7379;51.506;11.876;2022-12-18T00:04:32;44.23;;;25.93;;
14584;SDS011;7379;51.506;11.876;2022-12-18T00:07:00;44.33;;;25.90;;
14584;SDS011;7379;51.506;11.876;2022-12-18T00:09:27;44.10;;;25.33;;
14584;SDS011;7379;51.506;11.876;2022-12-18T00:11:54;41.67;;;25.67;;
14584;SDS011;7379;51.506;11.876;2022-12-18T00:14:21;42.70;;;25.97;;
14584;SDS011;7379;51.506;11.876;2022-12-18T00:16:48;40.77;;;25.17;;
14584;SDS011;7379;51.506;11.876;2022-12-18T00:19:15;42.07;;;25.47;;
14584;SDS011;7379;51.506;11.876;2022-12-18T00:21:42;43.03;;;25.57;;
14584;SDS011;7379;51.506;11.876;2022-12-18T00:24:11;41.43;;;24.67;;
14584;SDS011;7379;51.506;11.876;2022-12-18T00:26:38;44.83;;;26.23;;
14584;SDS011;7379;51.506;11.876;2022-12-18T00:29:06;44.23;;;26.13;;
14584;SDS011;7379;51.506;11.876;2022-12-18T00:31:34;42.43;;;24.90;;
14584;SDS011;7379;51.506;11.876;2022-12-18T00:34:01;42.00;;;25.33;;
14584;SDS011;7379;51.506;11.876;2022-12-18T00:36:30;41.30;;;25.80;;
14584;SDS011;7379;51.506;11.876;2022-12-18T00:38:59;42.67;;;25.67;;
14584;SDS011;7379;51.506;11.876;2022-12-18T00:41:28;42.27;;;25.70;;
14584;SDS011;7379;51.506;11.876;2022-12-18T00:44:13;42.37;;;25.90;;
14584;SDS011;7379;51.506;11.876;2022-12-18T00:46:41;43.30;;;25.33;;
14584;SDS011;7379;51.506;11.876;2022-12-18T00:49:08;43.33;;;25.30;;
14584;SDS011;7379;51.506;11.876;2022-12-18T00:51:38;42.97;;;25.60;;
14584;SDS011;7379;51.506;11.876;2022-12-18T00:54:05;40.97;;;24.73;;
14584;SDS011;7379;51.506;11.876;2022-12-18T00:56:33;43.40;;;25.63;;
14584;SDS011;7379;51.506;11.876;2022-12-18T00:59:01;44.67;;;25.50;;
14584;SDS011;7379;51.506;11.876;2022-12-18T01:01:28;42.93;;;25.83;;
14584;SDS011;7379;51.506;11.876;2022-12-18T01:03:55;42.60;;;26.57;;
14584;SDS011;7379;51.506;11.876;2022-12-18T01:06:24;43.40;;;25.77;;
14584;SDS011;7379;51.506;11.876;2022-12-18T01:08:51;43.07;;;25.60;;
14584;SDS011;7379;51.506;11.876;2022-12-18T01:11:19;41.80;;;24.60;;
14584;SDS011;7379;51.506;11.876;2022-12-18T01:13:48;44.83;;;26.13;;
14584;SDS011;7379;51.506;11.876;2022-12-18T01:16:16;41.10;;;25.13;;
14584;SDS011;7379;51.506;11.876;2022-12-18T01:18:43;44.13;;;26.50;;
14584;SDS011;7379;51.506;11.876;2022-12-18T01:21:11;46.40;;;26.53;;
14584;SDS011;7379;51.506;11.876;2022-12-18T01:23:39;43.90;;;26.10;;
14584;SDS011;7379;51.506;11.876;2022-12-18T01:26:10;42.70;;;26.37;;
14584;SDS011;7379;51.506;11.876;2022-12-18T01:28:39;44.13;;;25.60;;
14584;SDS011;7379;51.506;11.876;2022-12-18T01:31:14;42.20;;;25.13;;
14584;SDS011;7379;51.506;11.876;2022-12-18T01:33:43;42.70;;;24.77;;
14584;SDS011;7379;51.506;11.876;2022-12-18T01:36:17;43.13;;;24.67;;
14584;SDS011;7379;51.506;11.876;2022-12-18T01:38:45;41.33;;;24.40;;
14584;SDS011;7379;51.506;11.876;2022-12-18T01:41:12;42.03;;;25.17;;
14584;SDS011;7379;51.506;11.876;2022-12-18T01:43:44;41.27;;;23.87;;
14584;SDS011;7379;51.506;11.876;2022-12-18T01:46:14;38.93;;;23.00;;
14584;SDS011;7379;51.506;11.876;2022-12-18T01:48:42;42.80;;;25.40;;
14584;SDS011;7379;51.506;11.876;2022-12-18T01:51:10;37.87;;;23.00;;
14584;SDS011;7379;51.506;11.876;2022-12-18T01:53:39;37.30;;;23.53;;
14584;SDS011;7379;51.506;11.876;2022-12-18T01:56:07;36.97;;;23.60;;
14584;SDS011;7379;51.506;11.876;2022-12-18T01:58:39;36.27;;;24.23;;
14584;SDS011;7379;51.506;11.876;2022-12-18T02:01:11;36.57;;;23.47;;
14584;SDS011;7379;51.506;11.876;2022-12-18T02:03:40;35.30;;;21.87;;
14584;SDS011;7379;51.506;11.876;2022-12-18T02:06:09;37.37;;;22.63;;
14584;SDS011;7379;51.506;11.876;2022-12-18T02:08:42;36.13;;;23.50;;
14584;SDS011;7379;51.506;11.876;2022-12-18T02:11:15;35.53;;;22.37;;
14584;SDS011;7379;51.506;11.876;2022-12-18T02:13:50;36.20;;;23.77;;
14584;SDS011;7379;51.506;11.876;2022-12-18T02:16:23;35.40;;;22.53;;
14584;SDS011;7379;51.506;11.876;2022-12-18T02:18:56;36.90;;;23.13;;
14584;SDS011;7379;51.506;11.876;2022-12-18T02:21:28;34.60;;;21.73;;
14584;SDS011;7379;51.506;11.876;2022-12-18T02:24:04;37.60;;;22.40;;
14584;SDS011;7379;51.506;11.876;2022-12-18T02:26:45;35.20;;;21.67;;
14584;SDS011;7379;51.506;11.876;2022-12-18T02:29:15;32.73;;;22.67;;
14584;SDS011;7379;51.506;11.876;2022-12-18T02:31:47;35.17;;;22.00;;
14584;SDS011;7379;51.506;11.876;2022-12-18T02:34:17;38.00;;;23.43;;
14584;SDS011;7379;51.506;11.876;2022-12-18T02:36:48;35.80;;;22.50;;
14584;SDS011;7379;51.506;11.876;2022-12-18T02:39:17;34.83;;;22.37;;
14584;SDS011;7379;51.506;11.876;2022-12-18T02:41:48;33.37;;;21.77;;
14584;SDS011;7379;51.506;11.876;2022-12-18T02:44:15;33.90;;;22.03;;
14584;SDS011;7379;51.506;11.876;2022-12-18T02:46:43;35.37;;;21.90;;
14584;SDS011;7379;51.506;11.876;2022-12-18T02:49:23;34.30;;;22.30;;
14584;SDS011;7379;51.506;11.876;2022-12-18T02:51:59;36.57;;;21.83;;
14584;SDS011;7379;51.506;11.876;2022-12-18T02:54:37;32.10;;;21.40;;
14584;SDS011;7379;51.506;11.876;2022-12-18T02:57:18;33.83;;;21.77;;
14584;SDS011;7379;51.506;11.876;2022-12-18T02:59:54;33.43;;;21.07;;
14584;SDS011;7379;51.506;11.876;2022-12-18T03:02:25;35.03;;;21.43;;
14584;SDS011;7379;51.506;11.876;2022-12-18T03:05:01;32.20;;;20.87;;
14584;SDS011;7379;51.506;11.876;2022-12-18T03:07:34;32.33;;;21.07;;
14584;SDS011;7379;51.506;11.876;2022-12-18T03:10:05;31.10;;;21.00;;
14584;SDS011;7379;51.506;11.876;2022-12-18T03:12:36;31.47;;;20.63;;
14584;SDS011;7379;51.506;11.876;2022-12-18T03:15:07;35.30;;;21.63;;
14584;SDS011;7379;51.506;11.876;2022-12-18T03:17:38;35.17;;;21.93;;
14584;SDS011;7379;51.506;11.876;2022-12-18T03:20:11;32.70;;;20.90;;
14584;SDS011;7379;51.506;11.876;2022-12-18T03:22:41;32.90;;;21.10;;
14584;SDS011;7379;51.506;11.876;2022-12-18T03:25:12;35.37;;;22.10;;
14584;SDS011;7379;51.506;11.876;2022-12-18T03:27:44;34.53;;;20.83;;
14584;SDS011;7379;51.506;11.876;2022-12-18T03:30:14;34.53;;;21.40;;
14584;SDS011;7379;51.506;11.876;2022-12-18T03:32:42;35.67;;;21.43;;
14584;SDS011;7379;51.506;11.876;2022-12-18T03:35:14;33.37;;;21.20;;
14584;SDS011;7379;51.506;11.876;2022-12-18T03:37:45;38.77;;;22.80;;
14584;SDS011;7379;51.506;11.876;2022-12-18T03:40:12;32.80;;;21.33;;
14584;SDS011;7379;51.506;11.876;2022-12-18T03:42:40;36.00;;;21.10;;
14584;SDS011;7379;51.506;11.876;2022-12-18T03:45:13;37.67;;;21.87;;
14584;SDS011;7379;51.506;11.876;2022-12-18T03:47:52;37.80;;;21.10;;
14584;SDS011;7379;51.506;11.876;2022-12-18T03:50:25;36.63;;;22.07;;
14584;SDS011;7379;51.506;11.876;2022-12-18T03:52:59;39.00;;;22.23;;
14584;SDS011;7379;51.506;11.876;2022-12-18T03:55:30;34.30;;;21.00;;
14584;SDS011;7379;51.506;11.876;2022-12-18T03:58:01;40.53;;;23.13;;
14584;SDS011;7379;51.506;11.876;2022-12-18T04:00:30;36.53;;;21.40;;
14584;SDS011;7379;51.506;11.876;2022-12-18T04:02:59;39.03;;;21.83;;
14584;SDS011;7379;51.506;11.876;2022-12-18T04:05:28;34.17;;;20.63;;
14584;SDS011;7379;51.506;11.876;2022-12-18T04:07:56;36.37;;;21.80;;
14584;SDS011;7379;51.506;11.876;2022-12-18T04:10:23;37.07;;;21.87;;
14584;SDS011;7379;51.506;11.876;2022-12-18T04:12:50;35.43;;;22.43;;
14584;SDS011;7379;51.506;11.876;2022-12-18T04:15:18;32.77;;;20.37;;
14584;SDS011;7379;51.506;11.876;2022-12-18T04:17:47;34.03;;;21.03;;
14584;SDS011;7379;51.506;11.876;2022-12-18T04:20:15;38.90;;;22.60;;
14584;SDS011;7379;51.506;11.876;2022-12-18T04:22:42;37.13;;;22.23;;
14584;SDS011;7379;51.506;11.876;2022-12-18T04:25:09;34.17;;;21.07;;
14584;SDS011;7379;51.506;11.876;2022-12-18T04:27:38;35.67;;;21.43;;
14584;SDS011;7379;51.506;11.876;2022-12-18T04:30:05;33.27;;;21.00;;
14584;SDS011;7379;51.506;11.876;2022-12-18T04:32:34;36.43;;;22.13;;
14584;SDS011;7379;51.506;11.876;2022-12-18T04:35:01;36.97;;;21.53;;
14584;SDS011;7379;51.506;11.876;2022-12-18T04:37:31;34.87;;;21.27;;
14584;SDS011;7379;51.506;11.876;2022-12-18T04:39:58;37.63;;;20.67;;
14584;SDS011;7379;51.506;11.876;2022-12-18T04:42:25;37.30;;;21.53;;
14584;SDS011;7379;51.506;11.876;2022-12-18T04:44:52;37.20;;;21.80;;
14584;SDS011;7379;51.506;11.876;2022-12-18T04:47:19;37.00;;;22.17;;
14584;SDS011;7379;51.506;11.876;2022-12-18T04:49:47;34.90;;;21.33;;
14584;SDS011;7379;51.506;11.876;2022-12-18T04:52:14;33.80;;;21.83;;
14584;SDS011;7379;51.506;11.876;2022-12-18T04:54:40;41.17;;;23.20;;
14584;SDS011;7379;51.506;11.876;2022-12-18T04:57:07;34.70;;;21.43;;
14584;SDS011;7379;51.506;11.876;2022-12-18T04:59:34;35.57;;;22.23;;
14584;SDS011;7379;51.506;11.876;2022-12-18T05:02:01;34.23;;;21.40;;
14584;SDS011;7379;51.506;11.876;2022-12-18T05:04:27;36.17;;;22.10;;
14584;SDS011;7379;51.506;11.876;2022-12-18T05:06:56;38.47;;;22.97;;
14584;SDS011;7379;51.506;11.876;2022-12-18T05:09:23;36.37;;;22.20;;
14584;SDS011;7379;51.506;11.876;2022-12-18T05:11:49;38.93;;;22.70;;
14584;SDS011;7379;51.506;11.876;2022-12-18T05:14:16;38.33;;;22.67;;
14584;SDS011;7379;51.506;11.876;2022-12-18T05:16:43;39.63;;;23.33;;
14584;SDS011;7379;51.506;11.876;2022-12-18T05:19:10;37.63;;;22.63;;
14584;SDS011;7379;51.506;11.876;2022-12-18T05:21:37;38.03;;;22.30;;
14584;SDS011;7379;51.506;11.876;2022-12-18T05:24:05;40.47;;;22.33;;
14584;SDS011;7379;51.506;11.876;2022-12-18T05:26:32;36.53;;;21.50;;
14584;SDS011;7379;51.506;11.876;2022-12-18T05:28:59;38.57;;;22.83;;
14584;SDS011;7379;51.506;11.876;2022-12-18T05:31:26;40.07;;;22.57;;
14584;SDS011;7379;51.506;11.876;2022-12-18T05:33:53;35.97;;;21.23;;
14584;SDS011;7379;51.506;11.876;2022-12-18T05:36:20;35.40;;;21.80;;
14584;SDS011;7379;51.506;11.876;2022-12-18T05:38:46;37.83;;;22.10;;
14584;SDS011;7379;51.506;11.876;2022-12-18T05:41:15;35.63;;;21.43;;
14584;SDS011;7379;51.506;11.876;2022-12-18T05:43:41;35.33;;;20.93;;
14584;SDS011;7379;51.506;11.876;2022-12-18T05:46:10;33.20;;;20.37;;
14584;SDS011;7379;51.506;11.876;2022-12-18T05:48:39;37.10;;;21.50;;
14584;SDS011;7379;51.506;11.876;2022-12-18T05:51:06;32.90;;;20.23;;
14584;SDS011;7379;51.506;11.876;2022-12-18T05:53:34;32.77;;;20.50;;
14584;SDS011;7379;51.506;11.876;2022-12-18T05:56:02;35.20;;;20.97;;
14584;SDS011;7379;51.506;11.876;2022-12-18T05:58:31;35.67;;;20.07;;
14584;SDS011;7379;51.506;11.876;2022-12-18T06:01:05;33.43;;;21.13;;
14584;SDS011;7379;51.506;11.876;2022-12-18T06:03:33;37.03;;;21.10;;
14584;SDS011;7379;51.506;11.876;2022-12-18T06:05:59;32.67;;;19.97;;
14584;SDS011;7379;51.506;11.876;2022-12-18T06:08:26;33.57;;;20.13;;
14584;SDS011;7379;51.506;11.876;2022-12-18T06:10:53;33.70;;;20.73;;
14584;SDS011;7379;51.506;11.876;2022-12-18T06:13:20;33.07;;;20.57;;
14584;SDS011;7379;51.506;11.876;2022-12-18T06:15:48;33.40;;;19.83;;
14584;SDS011;7379;51.506;11.876;2022-12-18T06:18:15;32.40;;;19.90;;
14584;SDS011;7379;51.506;11.876;2022-12-18T06:20:42;30.40;;;19.90;;
14584;SDS011;7379;51.506;11.876;2022-12-18T06:23:09;31.33;;;19.73;;
14584;SDS011;7379;51.506;11.876;2022-12-18T06:25:37;30.37;;;20.23;;
14584;SDS011;7379;51.506;11.876;2022-12-18T06:28:04;33.30;;;19.33;;
14584;SDS011;7379;51.506;11.876;2022-12-18T06:30:31;32.23;;;20.03;;
14584;SDS011;7379;51.506;11.876;2022-12-18T06:32:59;28.20;;;19.20;;
14584;SDS011;7379;51.506;11.876;2022-12-18T06:35:29;31.30;;;19.70;;
14584;SDS011;7379;51.506;11.876;2022-12-18T06:37:58;31.33;;;19.53;;
14584;SDS011;7379;51.506;11.876;2022-12-18T06:40:26;31.07;;;18.93;;
14584;SDS011;7379;51.506;11.876;2022-12-18T06:42:53;30.57;;;18.97;;
14584;SDS011;7379;51.506;11.876;2022-12-18T06:45:20;28.53;;;19.13;;
14584;SDS011;7379;51.506;11.876;2022-12-18T06:47:47;31.40;;;19.03;;
14584;SDS011;7379;51.506;11.876;2022-12-18T06:50:15;30.87;;;19.13;;
14584;SDS011;7379;51.506;11.876;2022-12-18T06:52:42;29.07;;;19.07;;
14584;SDS011;7379;51.506;11.876;2022-12-18T06:55:09;28.93;;;18.77;;
14584;SDS011;7379;51.506;11.876;2022-12-18T06:57:37;30.73;;;18.77;;
14584;SDS011;7379;51.506;11.876;2022-12-18T07:00:05;28.20;;;19.20;;
14584;SDS011;7379;51.506;11.876;2022-12-18T07:02:33;30.47;;;18.17;;
14584;SDS011;7379;51.506;11.876;2022-12-18T07:05:00;28.33;;;19.00;;
14584;SDS011;7379;51.506;11.876;2022-12-18T07:07:28;30.43;;;18.40;;
14584;SDS011;7379;51.506;11.876;2022-12-18T07:09:55;29.40;;;18.53;;
14584;SDS011;7379;51.506;11.876;2022-12-18T07:12:22;25.23;;;16.80;;
14584;SDS011;7379;51.506;11.876;2022-12-18T07:14:48;25.43;;;17.20;;
14584;SDS011;7379;51.506;11.876;2022-12-18T07:17:15;26.80;;;18.47;;
14584;SDS011;7379;51.506;11.876;2022-12-18T07:19:42;26.27;;;18.10;;
14584;SDS011;7379;51.506;11.876;2022-12-18T07:22:08;25.97;;;16.33;;
14584;SDS011;7379;51.506;11.876;2022-12-18T07:24:37;23.80;;;16.70;;
14584;SDS011;7379;51.506;11.876;2022-12-18T07:27:03;25.03;;;16.80;;
14584;SDS011;7379;51.506;11.876;2022-12-18T07:29:30;23.17;;;15.90;;
14584;SDS011;7379;51.506;11.876;2022-12-18T07:31:57;23.30;;;16.47;;
14584;SDS011;7379;51.506;11.876;2022-12-18T07:34:24;25.23;;;15.90;;
14584;SDS011;7379;51.506;11.876;2022-12-18T07:36:50;24.13;;;16.30;;
14584;SDS011;7379;51.506;11.876;2022-12-18T07:39:17;23.77;;;16.53;;
14584;SDS011;7379;51.506;11.876;2022-12-18T07:41:45;22.93;;;16.20;;
14584;SDS011;7379;51.506;11.876;2022-12-18T07:44:32;22.03;;;15.77;;
14584;SDS011;7379;51.506;11.876;2022-12-18T07:46:59;23.30;;;16.10;;
14584;SDS011;7379;51.506;11.876;2022-12-18T07:49:26;24.93;;;16.30;;
14584;SDS011;7379;51.506;11.876;2022-12-18T07:51:53;24.83;;;16.03;;
14584;SDS011;7379;51.506;11.876;2022-12-18T07:54:21;24.70;;;16.43;;
14584;SDS011;7379;51.506;11.876;2022-12-18T07:56:49;24.97;;;16.53;;
14584;SDS011;7379;51.506;11.876;2022-12-18T07:59:16;24.80;;;15.73;;
14584;SDS011;7379;51.506;11.876;2022-12-18T08:01:43;26.67;;;16.90;;
14584;SDS011;7379;51.506;11.876;2022-12-18T08:04:10;23.53;;;15.43;;
14584;SDS011;7379;51.506;11.876;2022-12-18T08:06:36;26.03;;;16.73;;
14584;SDS011;7379;51.506;11.876;2022-12-18T08:09:03;22.83;;;15.93;;
14584;SDS011;7379;51.506;11.876;2022-12-18T08:11:30;27.17;;;16.67;;
14584;SDS011;7379;51.506;11.876;2022-12-18T08:13:58;23.63;;;15.93;;
14584;SDS011;7379;51.506;11.876;2022-12-18T08:16:25;23.67;;;16.07;;
14584;SDS011;7379;51.506;11.876;2022-12-18T08:18:52;22.80;;;15.77;;
14584;SDS011;7379;51.506;11.876;2022-12-18T08:21:20;26.60;;;17.30;;
14584;SDS011;7379;51.506;11.876;2022-12-18T08:23:48;26.07;;;16.80;;
14584;SDS011;7379;51.506;11.876;2022-12-18T08:26:15;27.33;;;17.20;;
14584;SDS011;7379;51.506;11.876;2022-12-18T08:28:42;25.90;;;17.13;;
14584;SDS011;7379;51.506;11.876;2022-12-18T08:31:11;27.87;;;17.10;;
14584;SDS011;7379;51.506;11.876;2022-12-18T08:33:38;25.27;;;16.97;;
14584;SDS011;7379;51.506;11.876;2022-12-18T08:36:06;26.57;;;16.93;;
14584;SDS011;7379;51.506;11.876;2022-12-18T08:38:34;24.30;;;16.17;;
14584;SDS011;7379;51.506;11.876;2022-12-18T08:41:01;26.47;;;16.57;;
14584;SDS011;7379;51.506;11.876;2022-12-18T08:43:31;29.10;;;17.83;;
14584;SDS011;7379;51.506;11.876;2022-12-18T08:46:17;28.20;;;16.77;;
14584;SDS011;7379;51.506;11.876;2022-12-18T08:48:44;32.63;;;18.13;;
14584;SDS011;7379;51.506;11.876;2022-12-18T08:51:11;26.40;;;17.83;;
14584;SDS011;7379;51.506;11.876;2022-12-18T08:53:38;25.27;;;16.10;;
14584;SDS011;7379;51.506;11.876;2022-12-18T08:56:05;25.97;;;16.67;;
14584;SDS011;7379;51.506;11.876;2022-12-18T08:58:32;25.00;;;16.27;;
14584;SDS011;7379;51.506;11.876;2022-12-18T09:00:59;30.03;;;17.27;;
14584;SDS011;7379;51.506;11.876;2022-12-18T09:03:28;24.97;;;16.13;;
14584;SDS011;7379;51.506;11.876;2022-12-18T09:05:55;26.87;;;17.17;;
14584;SDS011;7379;51.506;11.876;2022-12-18T09:08:22;23.93;;;15.43;;
14584;SDS011;7379;51.506;11.876;2022-12-18T09:10:49;26.30;;;16.67;;
14584;SDS011;7379;51.506;11.876;2022-12-18T09:13:16;24.23;;;16.73;;
14584;SDS011;7379;51.506;11.876;2022-12-18T09:15:44;26.13;;;16.87;;
14584;SDS011;7379;51.506;11.876;2022-12-18T09:18:13;26.07;;;16.43;;
14584;SDS011;7379;51.506;11.876;2022-12-18T09:20:41;25.57;;;16.33;;
14584;SDS011;7379;51.506;11.876;2022-12-18T09:23:09;26.20;;;17.13;;
14584;SDS011;7379;51.506;11.876;2022-12-18T09:25:36;25.73;;;16.20;;
14584;SDS011;7379;51.506;11.876;2022-12-18T09:28:04;26.47;;;16.47;;
14584;SDS011;7379;51.506;11.876;2022-12-18T09:30:32;26.37;;;16.60;;
14584;SDS011;7379;51.506;11.876;2022-12-18T09:32:59;23.70;;;15.80;;
14584;SDS011;7379;51.506;11.876;2022-12-18T09:35:26;26.07;;;16.37;;
14584;SDS011;7379;51.506;11.876;2022-12-18T09:37:54;26.00;;;16.13;;
14584;SDS011;7379;51.506;11.876;2022-12-18T09:40:22;24.83;;;16.60;;
14584;SDS011;7379;51.506;11.876;2022-12-18T09:42:52;27.93;;;16.77;;
14584;SDS011;7379;51.506;11.876;2022-12-18T09:45:23;27.53;;;17.33;;
14584;SDS011;7379;51.506;11.876;2022-12-18T09:47:51;24.63;;;15.97;;
14584;SDS011;7379;51.506;11.876;2022-12-18T09:50:22;26.20;;;17.37;;
14584;SDS011;7379;51.506;11.876;2022-12-18T09:52:55;25.87;;;16.50;;
14584;SDS011;7379;51.506;11.876;2022-12-18T09:55:26;26.70;;;16.93;;
14584;SDS011;7379;51.506;11.876;2022-12-18T09:57:57;26.73;;;16.53;;
14584;SDS011;7379;51.506;11.876;2022-12-18T10:00:28;27.80;;;16.90;;
14584;SDS011;7379;51.506;11.876;2022-12-18T10:02:57;28.07;;;17.93;;
14584;SDS011;7379;51.506;11.876;2022-12-18T10:05:29;30.93;;;17.40;;
14584;SDS011;7379;51.506;11.876;2022-12-18T10:08:05;23.17;;;15.77;;
14584;SDS011;7379;51.506;11.876;2022-12-18T10:10:39;27.63;;;17.10;;
14584;SDS011;7379;51.506;11.876;2022-12-18T10:13:13;27.70;;;17.17;;
14584;SDS011;7379;51.506;11.876;2022-12-18T10:15:51;26.30;;;16.83;;
14584;SDS011;7379;51.506;11.876;2022-12-18T10:18:32;29.27;;;17.07;;
14584;SDS011;7379;51.506;11.876;2022-12-18T10:21:09;24.23;;;16.30;;
14584;SDS011;7379;51.506;11.876;2022-12-18T10:23:41;24.93;;;16.30;;
14584;SDS011;7379;51.506;11.876;2022-12-18T10:26:13;28.47;;;16.97;;
14584;SDS011;7379;51.506;11.876;2022-12-18T10:28:40;25.80;;;17.13;;
14584;SDS011;7379;51.506;11.876;2022-12-18T10:31:07;25.00;;;16.73;;
14584;SDS011;7379;51.506;11.876;2022-12-18T10:33:41;23.67;;;16.47;;
14584;SDS011;7379;51.506;11.876;2022-12-18T10:36:07;25.73;;;16.70;;
14584;SDS011;7379;51.506;11.876;2022-12-18T10:38:35;26.77;;;16.93;;
14584;SDS011;7379;51.506;11.876;2022-12-18T10:41:04;23.87;;;15.93;;
14584;SDS011;7379;51.506;11.876;2022-12-18T10:43:35;25.37;;;16.37;;
14584;SDS011;7379;51.506;11.876;2022-12-18T10:46:04;25.77;;;16.20;;
14584;SDS011;7379;51.506;11.876;2022-12-18T10:48:41;25.13;;;15.53;;
14584;SDS011;7379;51.506;11.876;2022-12-18T10:51:19;20.90;;;14.80;;
14584;SDS011;7379;51.506;11.876;2022-12-18T10:53:51;24.10;;;15.43;;
14584;SDS011;7379;51.506;11.876;2022-12-18T10:56:21;23.73;;;15.50;;
14584;SDS011;7379;51.506;11.876;2022-12-18T10:58:55;22.13;;;14.57;;
14584;SDS011;7379;51.506;11.876;2022-12-18T11:01:24;24.63;;;15.40;;
14584;SDS011;7379;51.506;11.876;2022-12-18T11:03:59;23.47;;;15.20;;
14584;SDS011;7379;51.506;11.876;2022-12-18T11:06:28;22.67;;;14.70;;
14584;SDS011;7379;51.506;11.876;2022-12-18T11:08:59;21.93;;;14.07;;
14584;SDS011;7379;51.506;11.876;2022-12-18T11:11:37;20.33;;;13.93;;
14584;SDS011;7379;51.506;11.876;2022-12-18T11:14:05;20.87;;;14.53;;
14584;SDS011;7379;51.506;11.876;2022-12-18T11:16:37;19.90;;;14.47;;
14584;SDS011;7379;51.506;11.876;2022-12-18T11:19:13;20.87;;;13.20;;
14584;SDS011;7379;51.506;11.876;2022-12-18T11:21:47;21.07;;;13.37;;
14584;SDS011;7379;51.506;11.876;2022-12-18T11:24:19;19.47;;;13.40;;
14584;SDS011;7379;51.506;11.876;2022-12-18T11:26:51;21.70;;;13.97;;
14584;SDS011;7379;51.506;11.876;2022-12-18T11:29:20;20.07;;;13.10;;
14584;SDS011;7379;51.506;11.876;2022-12-18T11:34:59;18.47;;;12.43;;
14584;SDS011;7379;51.506;11.876;2022-12-18T11:37:35;17.23;;;11.73;;
14584;SDS011;7379;51.506;11.876;2022-12-18T11:40:03;21.37;;;12.43;;
14584;SDS011;7379;51.506;11.876;2022-12-18T11:42:36;18.73;;;12.37;;
14584;SDS011;7379;51.506;11.876;2022-12-18T11:47:54;17.90;;;11.80;;
14584;SDS011;7379;51.506;11.876;2022-12-18T11:50:24;18.33;;;12.23;;
14584;SDS011;7379;51.506;11.876;2022-12-18T11:52:54;18.63;;;12.93;;
14584;SDS011;7379;51.506;11.876;2022-12-18T11:55:23;18.53;;;12.43;;
14584;SDS011;7379;51.506;11.876;2022-12-18T11:58:00;19.90;;;12.17;;
14584;SDS011;7379;51.506;11.876;2022-12-18T12:00:32;15.93;;;12.27;;
14584;SDS011;7379;51.506;11.876;2022-12-18T12:03:15;19.77;;;12.40;;
14584;SDS011;7379;51.506;11.876;2022-12-18T12:06:06;17.40;;;11.30;;
14584;SDS011;7379;51.506;11.876;2022-12-18T12:08:48;15.67;;;10.90;;
14584;SDS011;7379;51.506;11.876;2022-12-18T12:11:27;16.17;;;11.13;;
14584;SDS011;7379;51.506;11.876;2022-12-18T12:14:09;16.37;;;11.47;;
14584;SDS011;7379;51.506;11.876;2022-12-18T12:16:47;16.27;;;10.63;;
14584;SDS011;7379;51.506;11.876;2022-12-18T12:19:22;16.70;;;11.17;;
14584;SDS011;7379;51.506;11.876;2022-12-18T12:22:03;18.33;;;10.63;;
14584;SDS011;7379;51.506;11.876;2022-12-18T12:24:38;15.23;;;10.07;;
14584;SDS011;7379;51.506;11.876;2022-12-18T12:27:17;15.57;;;10.83;;
14584;SDS011;7379;51.506;11.876;2022-12-18T12:29:55;15.10;;;10.23;;
14584;SDS011;7379;51.506;11.876;2022-12-18T12:32:44;16.47;;;11.00;;
14584;SDS011;7379;51.506;11.876;2022-12-18T12:35:23;14.50;;;10.47;;
14584;SDS011;7379;51.506;11.876;2022-12-18T12:38:01;14.60;;;10.00;;
14584;SDS011;7379;51.506;11.876;2022-12-18T12:40:38;14.10;;;10.37;;
14584;SDS011;7379;51.506;11.876;2022-12-18T12:43:12;14.27;;;10.53;;
14584;SDS011;7379;51.506;11.876;2022-12-18T12:45:49;15.20;;;10.03;;
14584;SDS011;7379;51.506;11.876;2022-12-18T12:51:08;15.73;;;10.33;;
14584;SDS011;7379;51.506;11.876;2022-12-18T12:53:40;13.40;;;10.17;;
14584;SDS011;7379;51.506;11.876;2022-12-18T12:56:08;14.03;;;10.43;;
14584;SDS011;7379;51.506;11.876;2022-12-18T12:58:38;13.37;;;9.90;;
14584;SDS011;7379;51.506;11.876;2022-12-18T13:01:16;14.50;;;10.27;;
14584;SDS011;7379;51.506;11.876;2022-12-18T13:03:55;13.97;;;9.83;;
14584;SDS011;7379;51.506;11.876;2022-12-18T13:06:33;16.07;;;10.10;;
14584;SDS011;7379;51.506;11.876;2022-12-18T13:09:06;15.43;;;10.13;;
14584;SDS011;7379;51.506;11.876;2022-12-18T13:11:36;13.47;;;9.77;;
14584;SDS011;7379;51.506;11.876;2022-12-18T13:14:24;13.23;;;9.83;;
14584;SDS011;7379;51.506;11.876;2022-12-18T13:17:16;13.37;;;9.63;;
14584;SDS011;7379;51.506;11.876;2022-12-18T13:20:09;13.10;;;9.70;;
14584;SDS011;7379;51.506;11.876;2022-12-18T13:22:39;12.80;;;9.43;;
14584;SDS011;7379;51.506;11.876;2022-12-18T13:25:27;14.00;;;9.47;;
14584;SDS011;7379;51.506;11.876;2022-12-18T13:28:03;12.83;;;9.57;;
14584;SDS011;7379;51.506;11.876;2022-12-18T13:30:41;12.77;;;10.20;;
14584;SDS011;7379;51.506;11.876;2022-12-18T13:36:10;14.00;;;9.33;;
14584;SDS011;7379;51.506;11.876;2022-12-18T13:38:40;13.63;;;9.23;;
14584;SDS011;7379;51.506;11.876;2022-12-18T13:41:21;14.97;;;9.53;;
14584;SDS011;7379;51.506;11.876;2022-12-18T13:43:49;14.13;;;9.10;;
14584;SDS011;7379;51.506;11.876;2022-12-18T13:46:23;13.10;;;9.37;;
14584;SDS011;7379;51.506;11.876;2022-12-18T13:48:54;12.90;;;8.90;;
14584;SDS011;7379;51.506;11.876;2022-12-18T13:51:23;12.80;;;9.63;;
14584;SDS011;7379;51.506;11.876;2022-12-18T13:53:52;12.30;;;8.67;;
14584;SDS011;7379;51.506;11.876;2022-12-18T13:56:23;13.80;;;9.37;;
14584;SDS011;7379;51.506;11.876;2022-12-18T13:59:04;12.23;;;9.10;;
14584;SDS011;7379;51.506;11.876;2022-12-18T14:01:41;10.43;;;8.30;;
14584;SDS011;7379;51.506;11.876;2022-12-18T14:04:11;12.10;;;8.67;;
14584;SDS011;7379;51.506;11.876;2022-12-18T14:06:44;12.70;;;9.00;;
14584;SDS011;7379;51.506;11.876;2022-12-18T14:09:13;11.07;;;8.13;;
14584;SDS011;7379;51.506;11.876;2022-12-18T14:11:45;10.67;;;8.03;;
14584;SDS011;7379;51.506;11.876;2022-12-18T14:14:13;11.87;;;8.73;;
14584;SDS011;7379;51.506;11.876;2022-12-18T14:16:41;12.43;;;8.70;;
14584;SDS011;7379;51.506;11.876;2022-12-18T14:19:12;10.43;;;8.20;;
14584;SDS011;7379;51.506;11.876;2022-12-18T14:21:45;10.80;;;8.43;;
14584;SDS011;7379;51.506;11.876;2022-12-18T14:24:13;10.57;;;8.17;;
14584;SDS011;7379;51.506;11.876;2022-12-18T14:26:42;11.40;;;8.07;;
14584;SDS011;7379;51.506;11.876;2022-12-18T14:29:19;10.37;;;7.80;;
14584;SDS011;7379;51.506;11.876;2022-12-18T14:34:32;10.80;;;8.13;;
14584;SDS011;7379;51.506;11.876;2022-12-18T14:37:02;11.10;;;8.07;;
14584;SDS011;7379;51.506;11.876;2022-12-18T14:39:29;12.50;;;8.80;;
14584;SDS011;7379;51.506;11.876;2022-12-18T14:41:56;11.80;;;8.63;;
14584;SDS011;7379;51.506;11.876;2022-12-18T14:44:23;11.20;;;8.80;;
14584;SDS011;7379;51.506;11.876;2022-12-18T14:46:50;10.93;;;8.50;;
14584;SDS011;7379;51.506;11.876;2022-12-18T14:49:21;10.53;;;8.37;;
14584;SDS011;7379;51.506;11.876;2022-12-18T14:51:52;11.47;;;8.60;;
14584;SDS011;7379;51.506;11.876;2022-12-18T14:54:21;11.93;;;9.70;;
14584;SDS011;7379;51.506;11.876;2022-12-18T14:56:50;12.87;;;9.03;;